sensor_id;sensor_type;location;lat;lon;timestamp;P1;durP1;ratioP1;P2;durP2;ratioP2
19087;SDS011;9676;50.916;13.352;2023-07-22T00:01:11;10.40;;;9.50;;
19087;SDS011;9676;50.916;13.352;2023-07-22T00:04:00;10.73;;;9.83;;
19087;SDS011;9676;50.916;13.352;2023-07-22T00:06:50;10.90;;;10.00;;
19087;SDS011;9676;50.916;13.352;2023-07-22T00:09:41;10.50;;;9.60;;
19087;SDS011;9676;50.916;13.352;2023-07-22T00:12:31;10.50;;;9.60;;
19087;SDS011;9676;50.916;13.352;2023-07-22T00:15:20;10.80;;;9.70;;
19087;SDS011;9676;50.916;13.352;2023-07-22T00:18:12;10.70;;;9.70;;
19087;SDS011;9676;50.916;13.352;2023-07-22T00:21:01;10.60;;;9.63;;
19087;SDS011;9676;50.916;13.352;2023-07-22T00:23:51;10.73;;;9.73;;
19087;SDS011;9676;50.916;13.352;2023-07-22T00:26:42;10.53;;;9.63;;
19087;SDS011;9676;50.916;13.352;2023-07-22T00:29:31;10.80;;;9.83;;
19087;SDS011;9676;50.916;13.352;2023-07-22T00:32:20;10.90;;;9.90;;
19087;SDS011;9676;50.916;13.352;2023-07-22T00:35:10;10.93;;;9.83;;
19087;SDS011;9676;50.916;13.352;2023-07-22T00:37:59;10.73;;;9.80;;
19087;SDS011;9676;50.916;13.352;2023-07-22T00:40:49;10.97;;;9.97;;
19087;SDS011;9676;50.916;13.352;2023-07-22T00:43:40;10.70;;;9.70;;
19087;SDS011;9676;50.916;13.352;2023-07-22T00:46:29;11.03;;;10.03;;
19087;SDS011;9676;50.916;13.352;2023-07-22T00:49:19;10.97;;;9.87;;
19087;SDS011;9676;50.916;13.352;2023-07-22T00:52:08;10.70;;;9.80;;
19087;SDS011;9676;50.916;13.352;2023-07-22T00:54:58;10.87;;;9.87;;
19087;SDS011;9676;50.916;13.352;2023-07-22T00:57:48;11.00;;;10.00;;
19087;SDS011;9676;50.916;13.352;2023-07-22T01:00:39;11.17;;;10.10;;
19087;SDS011;9676;50.916;13.352;2023-07-22T01:03:29;10.63;;;9.73;;
19087;SDS011;9676;50.916;13.352;2023-07-22T01:06:18;10.70;;;9.60;;
19087;SDS011;9676;50.916;13.352;2023-07-22T01:09:09;10.87;;;9.97;;
19087;SDS011;9676;50.916;13.352;2023-07-22T01:11:58;10.67;;;9.77;;
19087;SDS011;9676;50.916;13.352;2023-07-22T01:14:48;10.80;;;9.80;;
19087;SDS011;9676;50.916;13.352;2023-07-22T01:17:39;10.70;;;9.70;;
19087;SDS011;9676;50.916;13.352;2023-07-22T01:20:29;10.87;;;9.87;;
19087;SDS011;9676;50.916;13.352;2023-07-22T01:23:20;10.60;;;9.60;;
19087;SDS011;9676;50.916;13.352;2023-07-22T01:26:09;12.33;;;9.87;;
19087;SDS011;9676;50.916;13.352;2023-07-22T01:29:03;11.00;;;10.00;;
19087;SDS011;9676;50.916;13.352;2023-07-22T01:31:54;10.90;;;9.90;;
19087;SDS011;9676;50.916;13.352;2023-07-22T01:34:44;11.27;;;10.27;;
19087;SDS011;9676;50.916;13.352;2023-07-22T01:37:33;10.90;;;9.90;;
19087;SDS011;9676;50.916;13.352;2023-07-22T01:40:25;10.90;;;9.80;;
19087;SDS011;9676;50.916;13.352;2023-07-22T01:43:15;13.40;;;10.07;;
19087;SDS011;9676;50.916;13.352;2023-07-22T01:46:05;11.20;;;10.20;;
19087;SDS011;9676;50.916;13.352;2023-07-22T01:48:55;12.37;;;10.20;;
19087;SDS011;9676;50.916;13.352;2023-07-22T01:51:44;10.77;;;9.77;;
19087;SDS011;9676;50.916;13.352;2023-07-22T01:54:34;11.20;;;10.10;;
19087;SDS011;9676;50.916;13.352;2023-07-22T01:57:24;11.30;;;10.20;;
19087;SDS011;9676;50.916;13.352;2023-07-22T02:00:14;10.80;;;9.80;;
19087;SDS011;9676;50.916;13.352;2023-07-22T02:03:05;11.50;;;10.30;;
19087;SDS011;9676;50.916;13.352;2023-07-22T02:06:00;10.97;;;9.97;;
19087;SDS011;9676;50.916;13.352;2023-07-22T02:08:51;11.07;;;10.07;;
19087;SDS011;9676;50.916;13.352;2023-07-22T02:11:40;11.30;;;10.30;;
19087;SDS011;9676;50.916;13.352;2023-07-22T02:14:31;11.37;;;10.37;;
19087;SDS011;9676;50.916;13.352;2023-07-22T02:17:20;11.30;;;10.10;;
19087;SDS011;9676;50.916;13.352;2023-07-22T02:20:11;11.23;;;10.23;;
19087;SDS011;9676;50.916;13.352;2023-07-22T02:23:00;11.00;;;10.00;;
19087;SDS011;9676;50.916;13.352;2023-07-22T02:25:49;14.23;;;10.47;;
19087;SDS011;9676;50.916;13.352;2023-07-22T02:28:40;11.17;;;10.00;;
19087;SDS011;9676;50.916;13.352;2023-07-22T02:31:31;11.20;;;10.10;;
19087;SDS011;9676;50.916;13.352;2023-07-22T02:34:21;11.13;;;10.13;;
19087;SDS011;9676;50.916;13.352;2023-07-22T02:37:10;11.20;;;10.13;;
19087;SDS011;9676;50.916;13.352;2023-07-22T02:40:00;11.30;;;10.23;;
19087;SDS011;9676;50.916;13.352;2023-07-22T02:42:56;10.50;;;9.60;;
19087;SDS011;9676;50.916;13.352;2023-07-22T02:45:45;11.20;;;10.20;;
19087;SDS011;9676;50.916;13.352;2023-07-22T02:48:36;11.27;;;10.17;;
19087;SDS011;9676;50.916;13.352;2023-07-22T02:51:26;11.20;;;10.10;;
19087;SDS011;9676;50.916;13.352;2023-07-22T02:54:16;10.60;;;9.70;;
19087;SDS011;9676;50.916;13.352;2023-07-22T02:57:06;11.90;;;10.83;;
19087;SDS011;9676;50.916;13.352;2023-07-22T02:59:55;11.43;;;10.30;;
19087;SDS011;9676;50.916;13.352;2023-07-22T03:02:45;11.10;;;10.00;;
19087;SDS011;9676;50.916;13.352;2023-07-22T03:05:36;11.17;;;10.07;;
19087;SDS011;9676;50.916;13.352;2023-07-22T03:08:25;11.20;;;10.10;;
19087;SDS011;9676;50.916;13.352;2023-07-22T03:11:15;12.93;;;9.83;;
19087;SDS011;9676;50.916;13.352;2023-07-22T03:14:04;11.57;;;10.37;;
19087;SDS011;9676;50.916;13.352;2023-07-22T03:16:53;10.90;;;9.90;;
19087;SDS011;9676;50.916;13.352;2023-07-22T03:19:44;11.50;;;10.30;;
19087;SDS011;9676;50.916;13.352;2023-07-22T03:22:37;11.00;;;10.00;;
19087;SDS011;9676;50.916;13.352;2023-07-22T03:25:27;12.27;;;11.07;;
19087;SDS011;9676;50.916;13.352;2023-07-22T03:28:16;12.17;;;10.43;;
19087;SDS011;9676;50.916;13.352;2023-07-22T03:31:06;11.17;;;10.00;;
19087;SDS011;9676;50.916;13.352;2023-07-22T03:33:56;11.87;;;10.67;;
19087;SDS011;9676;50.916;13.352;2023-07-22T03:36:45;11.00;;;10.00;;
19087;SDS011;9676;50.916;13.352;2023-07-22T03:39:36;11.23;;;10.13;;
19087;SDS011;9676;50.916;13.352;2023-07-22T03:42:26;11.00;;;9.90;;
19087;SDS011;9676;50.916;13.352;2023-07-22T03:45:16;13.33;;;11.23;;
19087;SDS011;9676;50.916;13.352;2023-07-22T03:48:05;10.60;;;9.70;;
19087;SDS011;9676;50.916;13.352;2023-07-22T03:50:56;13.00;;;10.10;;
19087;SDS011;9676;50.916;13.352;2023-07-22T03:54:05;10.87;;;9.80;;
19087;SDS011;9676;50.916;13.352;2023-07-22T03:56:56;11.20;;;10.07;;
19087;SDS011;9676;50.916;13.352;2023-07-22T03:59:45;11.03;;;10.03;;
19087;SDS011;9676;50.916;13.352;2023-07-22T04:02:34;10.70;;;9.80;;
19087;SDS011;9676;50.916;13.352;2023-07-22T04:05:24;10.77;;;9.87;;
19087;SDS011;9676;50.916;13.352;2023-07-22T04:08:14;11.33;;;10.33;;
19087;SDS011;9676;50.916;13.352;2023-07-22T04:11:03;10.70;;;9.70;;
19087;SDS011;9676;50.916;13.352;2023-07-22T04:13:54;10.80;;;9.90;;
19087;SDS011;9676;50.916;13.352;2023-07-22T04:16:44;11.27;;;10.17;;
19087;SDS011;9676;50.916;13.352;2023-07-22T04:19:36;10.70;;;9.80;;
19087;SDS011;9676;50.916;13.352;2023-07-22T04:22:25;11.00;;;10.00;;
19087;SDS011;9676;50.916;13.352;2023-07-22T04:25:18;11.53;;;10.20;;
19087;SDS011;9676;50.916;13.352;2023-07-22T04:28:08;10.60;;;9.70;;
19087;SDS011;9676;50.916;13.352;2023-07-22T04:30:59;10.60;;;9.60;;
19087;SDS011;9676;50.916;13.352;2023-07-22T04:33:49;13.87;;;10.20;;
19087;SDS011;9676;50.916;13.352;2023-07-22T04:36:40;10.77;;;9.73;;
19087;SDS011;9676;50.916;13.352;2023-07-22T04:39:30;10.80;;;9.70;;
19087;SDS011;9676;50.916;13.352;2023-07-22T04:42:19;10.90;;;9.90;;
19087;SDS011;9676;50.916;13.352;2023-07-22T04:45:09;10.80;;;9.80;;
19087;SDS011;9676;50.916;13.352;2023-07-22T04:48:00;10.67;;;9.67;;
19087;SDS011;9676;50.916;13.352;2023-07-22T04:50:50;10.67;;;9.73;;
19087;SDS011;9676;50.916;13.352;2023-07-22T04:53:40;11.13;;;10.03;;
19087;SDS011;9676;50.916;13.352;2023-07-22T04:56:29;10.80;;;9.90;;
19087;SDS011;9676;50.916;13.352;2023-07-22T04:59:19;10.90;;;9.90;;
19087;SDS011;9676;50.916;13.352;2023-07-22T05:02:08;10.70;;;9.70;;
19087;SDS011;9676;50.916;13.352;2023-07-22T05:04:59;10.70;;;9.60;;
19087;SDS011;9676;50.916;13.352;2023-07-22T05:07:49;10.47;;;9.57;;
19087;SDS011;9676;50.916;13.352;2023-07-22T05:10:39;11.23;;;9.93;;
19087;SDS011;9676;50.916;13.352;2023-07-22T05:13:29;11.73;;;10.23;;
19087;SDS011;9676;50.916;13.352;2023-07-22T05:16:18;10.90;;;9.90;;
19087;SDS011;9676;50.916;13.352;2023-07-22T05:19:09;10.90;;;9.90;;
19087;SDS011;9676;50.916;13.352;2023-07-22T05:21:59;10.90;;;9.83;;
19087;SDS011;9676;50.916;13.352;2023-07-22T05:24:49;11.23;;;10.13;;
19087;SDS011;9676;50.916;13.352;2023-07-22T05:27:39;11.10;;;10.00;;
19087;SDS011;9676;50.916;13.352;2023-07-22T05:30:29;11.50;;;10.20;;
19087;SDS011;9676;50.916;13.352;2023-07-22T05:33:22;11.00;;;9.70;;
19087;SDS011;9676;50.916;13.352;2023-07-22T05:36:12;11.47;;;10.37;;
19087;SDS011;9676;50.916;13.352;2023-07-22T05:39:02;11.33;;;10.27;;
19087;SDS011;9676;50.916;13.352;2023-07-22T05:41:52;10.90;;;9.90;;
19087;SDS011;9676;50.916;13.352;2023-07-22T05:44:41;11.40;;;10.00;;
19087;SDS011;9676;50.916;13.352;2023-07-22T05:47:30;10.80;;;9.80;;
19087;SDS011;9676;50.916;13.352;2023-07-22T05:50:20;11.20;;;10.20;;
19087;SDS011;9676;50.916;13.352;2023-07-22T05:53:10;13.40;;;10.20;;
19087;SDS011;9676;50.916;13.352;2023-07-22T05:56:02;11.00;;;9.93;;
19087;SDS011;9676;50.916;13.352;2023-07-22T05:58:52;11.50;;;10.33;;
19087;SDS011;9676;50.916;13.352;2023-07-22T06:01:41;10.93;;;9.93;;
19087;SDS011;9676;50.916;13.352;2023-07-22T06:04:31;11.43;;;10.23;;
19087;SDS011;9676;50.916;13.352;2023-07-22T06:07:20;12.40;;;10.60;;
19087;SDS011;9676;50.916;13.352;2023-07-22T06:10:10;11.47;;;10.30;;
19087;SDS011;9676;50.916;13.352;2023-07-22T06:13:01;11.60;;;10.50;;
19087;SDS011;9676;50.916;13.352;2023-07-22T06:15:50;10.90;;;9.90;;
19087;SDS011;9676;50.916;13.352;2023-07-22T06:18:40;11.50;;;10.40;;
19087;SDS011;9676;50.916;13.352;2023-07-22T06:21:29;11.60;;;10.50;;
19087;SDS011;9676;50.916;13.352;2023-07-22T06:24:19;13.40;;;10.80;;
19087;SDS011;9676;50.916;13.352;2023-07-22T06:27:08;15.10;;;10.67;;
19087;SDS011;9676;50.916;13.352;2023-07-22T06:29:59;11.60;;;10.20;;
19087;SDS011;9676;50.916;13.352;2023-07-22T06:32:48;11.47;;;10.37;;
19087;SDS011;9676;50.916;13.352;2023-07-22T06:35:38;11.57;;;10.13;;
19087;SDS011;9676;50.916;13.352;2023-07-22T06:38:27;11.93;;;10.73;;
19087;SDS011;9676;50.916;13.352;2023-07-22T06:41:17;12.40;;;11.20;;
19087;SDS011;9676;50.916;13.352;2023-07-22T06:44:06;11.40;;;10.23;;
19087;SDS011;9676;50.916;13.352;2023-07-22T06:46:57;11.60;;;10.50;;
19087;SDS011;9676;50.916;13.352;2023-07-22T06:49:47;11.60;;;10.37;;
19087;SDS011;9676;50.916;13.352;2023-07-22T06:52:36;15.93;;;9.80;;
19087;SDS011;9676;50.916;13.352;2023-07-22T06:55:25;11.63;;;10.53;;
19087;SDS011;9676;50.916;13.352;2023-07-22T06:58:15;12.80;;;10.63;;
19087;SDS011;9676;50.916;13.352;2023-07-22T07:01:04;12.73;;;11.23;;
19087;SDS011;9676;50.916;13.352;2023-07-22T07:03:55;12.27;;;10.80;;
19087;SDS011;9676;50.916;13.352;2023-07-22T07:06:44;12.00;;;10.90;;
19087;SDS011;9676;50.916;13.352;2023-07-22T07:09:34;11.23;;;10.13;;
19087;SDS011;9676;50.916;13.352;2023-07-22T07:12:24;12.10;;;10.90;;
19087;SDS011;9676;50.916;13.352;2023-07-22T07:15:13;11.70;;;10.60;;
19087;SDS011;9676;50.916;13.352;2023-07-22T07:18:03;11.30;;;10.20;;
19087;SDS011;9676;50.916;13.352;2023-07-22T07:20:54;11.50;;;10.40;;
19087;SDS011;9676;50.916;13.352;2023-07-22T07:23:43;11.77;;;10.67;;
19087;SDS011;9676;50.916;13.352;2023-07-22T07:26:33;11.83;;;10.53;;
19087;SDS011;9676;50.916;13.352;2023-07-22T07:29:22;11.20;;;10.20;;
19087;SDS011;9676;50.916;13.352;2023-07-22T07:32:31;11.53;;;10.20;;
19087;SDS011;9676;50.916;13.352;2023-07-22T07:35:21;10.87;;;9.87;;
19087;SDS011;9676;50.916;13.352;2023-07-22T07:38:12;10.47;;;9.50;;
19087;SDS011;9676;50.916;13.352;2023-07-22T07:41:03;11.10;;;10.00;;
19087;SDS011;9676;50.916;13.352;2023-07-22T07:43:55;10.47;;;9.57;;
19087;SDS011;9676;50.916;13.352;2023-07-22T07:46:45;10.27;;;9.27;;
19087;SDS011;9676;50.916;13.352;2023-07-22T07:49:34;10.80;;;9.80;;
19087;SDS011;9676;50.916;13.352;2023-07-22T07:52:23;10.80;;;9.70;;
19087;SDS011;9676;50.916;13.352;2023-07-22T07:55:14;11.77;;;9.50;;
19087;SDS011;9676;50.916;13.352;2023-07-22T07:58:04;10.33;;;9.40;;
19087;SDS011;9676;50.916;13.352;2023-07-22T08:00:53;10.23;;;9.23;;
19087;SDS011;9676;50.916;13.352;2023-07-22T08:03:43;10.77;;;9.67;;
19087;SDS011;9676;50.916;13.352;2023-07-22T08:06:33;9.90;;;9.00;;
19087;SDS011;9676;50.916;13.352;2023-07-22T08:09:22;14.52;;;9.57;;
19087;SDS011;9676;50.916;13.352;2023-07-22T08:12:13;10.30;;;9.30;;
19087;SDS011;9676;50.916;13.352;2023-07-22T08:15:02;9.90;;;9.00;;
19087;SDS011;9676;50.916;13.352;2023-07-22T08:17:52;10.20;;;9.20;;
19087;SDS011;9676;50.916;13.352;2023-07-22T08:20:42;10.30;;;9.30;;
19087;SDS011;9676;50.916;13.352;2023-07-22T08:23:34;9.87;;;9.00;;
19087;SDS011;9676;50.916;13.352;2023-07-22T08:26:25;10.40;;;9.40;;
19087;SDS011;9676;50.916;13.352;2023-07-22T08:29:16;10.33;;;9.33;;
19087;SDS011;9676;50.916;13.352;2023-07-22T08:32:06;10.50;;;9.50;;
19087;SDS011;9676;50.916;13.352;2023-07-22T08:34:55;10.00;;;9.10;;
19087;SDS011;9676;50.916;13.352;2023-07-22T08:37:45;9.93;;;8.90;;
19087;SDS011;9676;50.916;13.352;2023-07-22T08:40:35;10.63;;;9.60;;
19087;SDS011;9676;50.916;13.352;2023-07-22T08:43:25;9.87;;;8.93;;
19087;SDS011;9676;50.916;13.352;2023-07-22T08:46:18;10.23;;;9.23;;
19087;SDS011;9676;50.916;13.352;2023-07-22T08:49:09;9.93;;;9.02;;
19087;SDS011;9676;50.916;13.352;2023-07-22T08:51:58;9.90;;;9.00;;
19087;SDS011;9676;50.916;13.352;2023-07-22T08:54:49;9.80;;;8.90;;
19087;SDS011;9676;50.916;13.352;2023-07-22T08:57:39;11.10;;;9.60;;
19087;SDS011;9676;50.916;13.352;2023-07-22T09:00:30;9.80;;;8.90;;
19087;SDS011;9676;50.916;13.352;2023-07-22T09:03:21;10.00;;;9.10;;
19087;SDS011;9676;50.916;13.352;2023-07-22T09:06:10;10.00;;;9.10;;
19087;SDS011;9676;50.916;13.352;2023-07-22T09:09:00;10.00;;;9.10;;
19087;SDS011;9676;50.916;13.352;2023-07-22T09:11:52;9.93;;;9.02;;
19087;SDS011;9676;50.916;13.352;2023-07-22T09:14:42;10.32;;;9.32;;
19087;SDS011;9676;50.916;13.352;2023-07-22T09:17:32;9.73;;;8.82;;
19087;SDS011;9676;50.916;13.352;2023-07-22T09:20:23;9.40;;;8.60;;
19087;SDS011;9676;50.916;13.352;2023-07-22T09:23:15;9.80;;;8.90;;
19087;SDS011;9676;50.916;13.352;2023-07-22T09:26:08;9.57;;;8.70;;
19087;SDS011;9676;50.916;13.352;2023-07-22T09:28:58;10.13;;;9.23;;
19087;SDS011;9676;50.916;13.352;2023-07-22T09:31:48;10.50;;;9.20;;
19087;SDS011;9676;50.916;13.352;2023-07-22T09:34:41;9.97;;;9.07;;
19087;SDS011;9676;50.916;13.352;2023-07-22T09:37:45;9.55;;;8.70;;
19087;SDS011;9676;50.916;13.352;2023-07-22T09:40:34;9.57;;;8.57;;
19087;SDS011;9676;50.916;13.352;2023-07-22T09:43:24;9.13;;;8.40;;
19087;SDS011;9676;50.916;13.352;2023-07-22T09:46:14;18.23;;;8.55;;
19087;SDS011;9676;50.916;13.352;2023-07-22T09:49:18;9.52;;;8.63;;
19087;SDS011;9676;50.916;13.352;2023-07-22T09:52:09;9.60;;;8.70;;
19087;SDS011;9676;50.916;13.352;2023-07-22T09:55:02;9.85;;;8.95;;
19087;SDS011;9676;50.916;13.352;2023-07-22T09:57:53;9.70;;;8.90;;
19087;SDS011;9676;50.916;13.352;2023-07-22T10:00:46;9.60;;;8.80;;
19087;SDS011;9676;50.916;13.352;2023-07-22T10:03:37;9.80;;;8.90;;
19087;SDS011;9676;50.916;13.352;2023-07-22T10:06:28;15.93;;;9.00;;
19087;SDS011;9676;50.916;13.352;2023-07-22T10:09:17;9.80;;;8.93;;
19087;SDS011;9676;50.916;13.352;2023-07-22T10:12:11;10.00;;;9.10;;
19087;SDS011;9676;50.916;13.352;2023-07-22T10:15:02;9.80;;;8.90;;
19087;SDS011;9676;50.916;13.352;2023-07-22T10:17:53;9.20;;;8.40;;
19087;SDS011;9676;50.916;13.352;2023-07-22T10:20:45;9.93;;;9.03;;
19087;SDS011;9676;50.916;13.352;2023-07-22T10:23:35;9.87;;;8.90;;
19087;SDS011;9676;50.916;13.352;2023-07-22T10:26:26;13.23;;;8.60;;
19087;SDS011;9676;50.916;13.352;2023-07-22T10:29:35;9.80;;;8.80;;
19087;SDS011;9676;50.916;13.352;2023-07-22T10:32:31;9.50;;;8.70;;
19087;SDS011;9676;50.916;13.352;2023-07-22T10:35:23;10.40;;;9.50;;
19087;SDS011;9676;50.916;13.352;2023-07-22T10:38:28;10.20;;;9.30;;
19087;SDS011;9676;50.916;13.352;2023-07-22T10:41:18;9.97;;;9.07;;
19087;SDS011;9676;50.916;13.352;2023-07-22T10:44:09;10.00;;;9.10;;
19087;SDS011;9676;50.916;13.352;2023-07-22T10:47:01;10.03;;;8.77;;
19087;SDS011;9676;50.916;13.352;2023-07-22T10:49:52;10.33;;;9.20;;
19087;SDS011;9676;50.916;13.352;2023-07-22T10:52:42;9.80;;;8.90;;
19087;SDS011;9676;50.916;13.352;2023-07-22T10:55:35;10.50;;;9.50;;
19087;SDS011;9676;50.916;13.352;2023-07-22T10:59:04;9.97;;;9.07;;
19087;SDS011;9676;50.916;13.352;2023-07-22T11:01:53;10.70;;;9.10;;
19087;SDS011;9676;50.916;13.352;2023-07-22T11:04:44;10.10;;;9.13;;
19087;SDS011;9676;50.916;13.352;2023-07-22T11:07:43;10.30;;;9.30;;
19087;SDS011;9676;50.916;13.352;2023-07-22T11:10:34;9.70;;;8.80;;
19087;SDS011;9676;50.916;13.352;2023-07-22T11:13:28;10.10;;;9.20;;
19087;SDS011;9676;50.916;13.352;2023-07-22T11:16:17;9.73;;;8.83;;
19087;SDS011;9676;50.916;13.352;2023-07-22T11:19:07;10.37;;;9.27;;
19087;SDS011;9676;50.916;13.352;2023-07-22T11:21:57;9.90;;;9.00;;
19087;SDS011;9676;50.916;13.352;2023-07-22T11:24:47;9.97;;;9.07;;
19087;SDS011;9676;50.916;13.352;2023-07-22T11:27:38;10.30;;;9.30;;
19087;SDS011;9676;50.916;13.352;2023-07-22T11:30:27;9.90;;;9.00;;
19087;SDS011;9676;50.916;13.352;2023-07-22T11:33:17;9.83;;;8.93;;
19087;SDS011;9676;50.916;13.352;2023-07-22T11:36:06;10.27;;;9.30;;
19087;SDS011;9676;50.916;13.352;2023-07-22T11:39:02;10.27;;;9.37;;
19087;SDS011;9676;50.916;13.352;2023-07-22T11:41:52;10.23;;;9.30;;
19087;SDS011;9676;50.916;13.352;2023-07-22T11:44:42;10.20;;;9.20;;
19087;SDS011;9676;50.916;13.352;2023-07-22T11:47:31;10.77;;;9.67;;
19087;SDS011;9676;50.916;13.352;2023-07-22T11:50:30;10.87;;;9.77;;
19087;SDS011;9676;50.916;13.352;2023-07-22T11:53:20;10.30;;;9.27;;
19087;SDS011;9676;50.916;13.352;2023-07-22T11:56:11;11.07;;;9.60;;
19087;SDS011;9676;50.916;13.352;2023-07-22T11:59:00;10.27;;;9.27;;
19087;SDS011;9676;50.916;13.352;2023-07-22T12:01:50;10.23;;;9.00;;
19087;SDS011;9676;50.916;13.352;2023-07-22T12:04:42;10.37;;;9.37;;
19087;SDS011;9676;50.916;13.352;2023-07-22T12:07:33;10.03;;;9.13;;
19087;SDS011;9676;50.916;13.352;2023-07-22T12:10:24;10.17;;;9.10;;
19087;SDS011;9676;50.916;13.352;2023-07-22T12:13:15;10.70;;;9.70;;
19087;SDS011;9676;50.916;13.352;2023-07-22T12:16:05;10.30;;;9.30;;
19087;SDS011;9676;50.916;13.352;2023-07-22T12:18:55;10.37;;;9.40;;
19087;SDS011;9676;50.916;13.352;2023-07-22T12:21:45;11.10;;;10.00;;
19087;SDS011;9676;50.916;13.352;2023-07-22T12:24:36;10.30;;;9.40;;
19087;SDS011;9676;50.916;13.352;2023-07-22T12:27:25;10.83;;;9.80;;
19087;SDS011;9676;50.916;13.352;2023-07-22T12:30:16;10.30;;;9.40;;
19087;SDS011;9676;50.916;13.352;2023-07-22T12:33:06;10.83;;;9.33;;
19087;SDS011;9676;50.916;13.352;2023-07-22T12:35:56;10.33;;;9.40;;
19087;SDS011;9676;50.916;13.352;2023-07-22T12:38:46;10.90;;;9.80;;
19087;SDS011;9676;50.916;13.352;2023-07-22T12:41:35;10.30;;;9.40;;
19087;SDS011;9676;50.916;13.352;2023-07-22T12:44:25;10.27;;;9.33;;
19087;SDS011;9676;50.916;13.352;2023-07-22T12:47:16;10.10;;;9.20;;
19087;SDS011;9676;50.916;13.352;2023-07-22T12:50:06;10.23;;;9.23;;
19087;SDS011;9676;50.916;13.352;2023-07-22T12:52:56;10.30;;;9.33;;
19087;SDS011;9676;50.916;13.352;2023-07-22T12:55:46;10.13;;;9.23;;
19087;SDS011;9676;50.916;13.352;2023-07-22T12:58:35;10.50;;;9.50;;
19087;SDS011;9676;50.916;13.352;2023-07-22T13:01:24;10.33;;;9.33;;
19087;SDS011;9676;50.916;13.352;2023-07-22T13:04:16;10.60;;;9.60;;
19087;SDS011;9676;50.916;13.352;2023-07-22T13:07:05;10.20;;;9.27;;
19087;SDS011;9676;50.916;13.352;2023-07-22T13:09:55;10.60;;;9.60;;
19087;SDS011;9676;50.916;13.352;2023-07-22T13:12:45;11.20;;;10.00;;
19087;SDS011;9676;50.916;13.352;2023-07-22T13:15:34;10.57;;;9.60;;
19087;SDS011;9676;50.916;13.352;2023-07-22T13:18:24;10.30;;;9.30;;
19087;SDS011;9676;50.916;13.352;2023-07-22T13:21:14;10.40;;;9.40;;
19087;SDS011;9676;50.916;13.352;2023-07-22T13:24:04;10.53;;;9.53;;
19087;SDS011;9676;50.916;13.352;2023-07-22T13:26:54;10.40;;;9.40;;
19087;SDS011;9676;50.916;13.352;2023-07-22T13:29:43;10.80;;;9.80;;
19087;SDS011;9676;50.916;13.352;2023-07-22T13:32:33;11.00;;;9.90;;
19087;SDS011;9676;50.916;13.352;2023-07-22T13:35:25;10.70;;;9.70;;
19087;SDS011;9676;50.916;13.352;2023-07-22T13:38:16;10.50;;;9.50;;
19087;SDS011;9676;50.916;13.352;2023-07-22T13:41:06;10.50;;;9.50;;
19087;SDS011;9676;50.916;13.352;2023-07-22T13:43:55;10.90;;;9.90;;
19087;SDS011;9676;50.916;13.352;2023-07-22T13:46:44;10.37;;;9.40;;
19087;SDS011;9676;50.916;13.352;2023-07-22T13:49:35;10.77;;;9.67;;
19087;SDS011;9676;50.916;13.352;2023-07-22T13:52:24;10.60;;;9.60;;
19087;SDS011;9676;50.916;13.352;2023-07-22T13:55:15;10.77;;;9.77;;
19087;SDS011;9676;50.916;13.352;2023-07-22T13:58:04;10.40;;;9.40;;
19087;SDS011;9676;50.916;13.352;2023-07-22T14:00:53;12.43;;;9.77;;
19087;SDS011;9676;50.916;13.352;2023-07-22T14:03:43;10.43;;;9.43;;
19087;SDS011;9676;50.916;13.352;2023-07-22T14:06:32;10.67;;;9.67;;
19087;SDS011;9676;50.916;13.352;2023-07-22T14:09:22;10.77;;;9.73;;
19087;SDS011;9676;50.916;13.352;2023-07-22T14:12:13;11.00;;;9.80;;
19087;SDS011;9676;50.916;13.352;2023-07-22T14:15:02;10.60;;;9.60;;
19087;SDS011;9676;50.916;13.352;2023-07-22T14:17:53;10.63;;;9.63;;
19087;SDS011;9676;50.916;13.352;2023-07-22T14:20:43;10.63;;;9.63;;
19087;SDS011;9676;50.916;13.352;2023-07-22T14:23:33;10.90;;;9.80;;
19087;SDS011;9676;50.916;13.352;2023-07-22T14:26:22;10.80;;;9.80;;
19087;SDS011;9676;50.916;13.352;2023-07-22T14:29:13;10.90;;;9.80;;
19087;SDS011;9676;50.916;13.352;2023-07-22T14:32:03;11.13;;;10.03;;
19087;SDS011;9676;50.916;13.352;2023-07-22T14:34:53;11.07;;;9.97;;
19087;SDS011;9676;50.916;13.352;2023-07-22T14:37:42;10.80;;;9.80;;
19087;SDS011;9676;50.916;13.352;2023-07-22T14:40:32;11.17;;;10.10;;
19087;SDS011;9676;50.916;13.352;2023-07-22T14:43:21;10.60;;;9.60;;
19087;SDS011;9676;50.916;13.352;2023-07-22T14:46:13;11.03;;;10.03;;
19087;SDS011;9676;50.916;13.352;2023-07-22T14:49:02;10.70;;;9.70;;
19087;SDS011;9676;50.916;13.352;2023-07-22T14:51:56;10.80;;;9.80;;
19087;SDS011;9676;50.916;13.352;2023-07-22T14:54:46;10.77;;;9.67;;
19087;SDS011;9676;50.916;13.352;2023-07-22T14:57:36;11.40;;;10.20;;
19087;SDS011;9676;50.916;13.352;2023-07-22T15:00:25;11.53;;;10.37;;
19087;SDS011;9676;50.916;13.352;2023-07-22T15:03:16;10.87;;;9.57;;
19087;SDS011;9676;50.916;13.352;2023-07-22T15:06:06;11.17;;;10.07;;
19087;SDS011;9676;50.916;13.352;2023-07-22T15:08:55;11.03;;;10.00;;
19087;SDS011;9676;50.916;13.352;2023-07-22T15:11:45;10.83;;;9.83;;
19087;SDS011;9676;50.916;13.352;2023-07-22T15:14:35;11.30;;;10.20;;
19087;SDS011;9676;50.916;13.352;2023-07-22T15:17:25;10.70;;;9.63;;
19087;SDS011;9676;50.916;13.352;2023-07-22T15:20:16;16.10;;;9.80;;
19087;SDS011;9676;50.916;13.352;2023-07-22T15:23:05;10.60;;;9.60;;
19087;SDS011;9676;50.916;13.352;2023-07-22T15:25:55;10.50;;;9.50;;
19087;SDS011;9676;50.916;13.352;2023-07-22T15:28:45;10.60;;;9.60;;
19087;SDS011;9676;50.916;13.352;2023-07-22T15:31:35;10.90;;;9.80;;
19087;SDS011;9676;50.916;13.352;2023-07-22T15:34:26;10.83;;;9.73;;
19087;SDS011;9676;50.916;13.352;2023-07-22T15:37:17;10.53;;;9.50;;
19087;SDS011;9676;50.916;13.352;2023-07-22T15:40:07;10.80;;;9.80;;
19087;SDS011;9676;50.916;13.352;2023-07-22T15:42:58;10.40;;;9.40;;
19087;SDS011;9676;50.916;13.352;2023-07-22T15:45:47;11.70;;;10.50;;
19087;SDS011;9676;50.916;13.352;2023-07-22T15:48:37;11.53;;;10.43;;
19087;SDS011;9676;50.916;13.352;2023-07-22T15:51:26;11.37;;;10.27;;
19087;SDS011;9676;50.916;13.352;2023-07-22T15:54:17;11.47;;;10.37;;
19087;SDS011;9676;50.916;13.352;2023-07-22T15:57:07;10.93;;;9.93;;
19087;SDS011;9676;50.916;13.352;2023-07-22T15:59:56;10.97;;;9.87;;
19087;SDS011;9676;50.916;13.352;2023-07-22T16:02:46;11.20;;;10.10;;
19087;SDS011;9676;50.916;13.352;2023-07-22T16:05:35;11.20;;;10.10;;
19087;SDS011;9676;50.916;13.352;2023-07-22T16:08:25;10.70;;;9.70;;
19087;SDS011;9676;50.916;13.352;2023-07-22T16:11:16;10.80;;;9.80;;
19087;SDS011;9676;50.916;13.352;2023-07-22T16:14:06;11.80;;;9.93;;
19087;SDS011;9676;50.916;13.352;2023-07-22T16:16:57;11.23;;;10.13;;
19087;SDS011;9676;50.916;13.352;2023-07-22T16:19:46;11.13;;;10.03;;
19087;SDS011;9676;50.916;13.352;2023-07-22T16:22:36;11.10;;;10.00;;
19087;SDS011;9676;50.916;13.352;2023-07-22T16:25:27;10.67;;;9.67;;
19087;SDS011;9676;50.916;13.352;2023-07-22T16:28:17;11.53;;;10.43;;
19087;SDS011;9676;50.916;13.352;2023-07-22T16:31:07;11.47;;;10.37;;
19087;SDS011;9676;50.916;13.352;2023-07-22T16:33:57;11.27;;;10.13;;
19087;SDS011;9676;50.916;13.352;2023-07-22T16:36:48;11.10;;;10.00;;
19087;SDS011;9676;50.916;13.352;2023-07-22T16:39:37;11.57;;;10.37;;
19087;SDS011;9676;50.916;13.352;2023-07-22T16:42:27;11.80;;;10.67;;
19087;SDS011;9676;50.916;13.352;2023-07-22T16:45:18;12.30;;;10.57;;
19087;SDS011;9676;50.916;13.352;2023-07-22T16:48:07;13.00;;;10.87;;